Map

Track Data

SID SEASON NUMBER BASIN SUBBASIN NAME ISO_TIME NATURE LAT LON WMO_WIND WMO_PRES WMO_AGENCY TRACK_TYPE DIST2LAND LANDFALL IFLAG USA_AGENCY USA_ATCF_ID USA_LAT USA_LON USA_RECORD USA_STATUS USA_WIND USA_PRES USA_SSHS USA_R34_NE USA_R34_SE USA_R34_SW USA_R34_NW USA_R50_NE USA_R50_SE USA_R50_SW USA_R50_NW USA_R64_NE USA_R64_SE USA_R64_SW USA_R64_NW USA_POCI USA_ROCI USA_RMW USA_EYE TOKYO_LAT TOKYO_LON TOKYO_GRADE TOKYO_WIND TOKYO_PRES TOKYO_R50_DIR TOKYO_R50_LONG TOKYO_R50_SHORT TOKYO_R30_DIR TOKYO_R30_LONG TOKYO_R30_SHORT TOKYO_LAND CMA_LAT CMA_LON CMA_CAT CMA_WIND CMA_PRES HKO_LAT HKO_LON HKO_CAT HKO_WIND HKO_PRES NEWDELHI_LAT NEWDELHI_LON NEWDELHI_GRADE NEWDELHI_WIND NEWDELHI_PRES NEWDELHI_CI NEWDELHI_DP NEWDELHI_POCI REUNION_LAT REUNION_LON REUNION_TYPE REUNION_WIND REUNION_PRES REUNION_TNUM REUNION_CI REUNION_RMW REUNION_R34_NE REUNION_R34_SE REUNION_R34_SW REUNION_R34_NW REUNION_R50_NE REUNION_R50_SE REUNION_R50_SW REUNION_R50_NW REUNION_R64_NE REUNION_R64_SE REUNION_R64_SW REUNION_R64_NW BOM_LAT BOM_LON BOM_TYPE BOM_WIND BOM_PRES BOM_TNUM BOM_CI BOM_RMW BOM_R34_NE BOM_R34_SE BOM_R34_SW BOM_R34_NW BOM_R50_NE BOM_R50_SE BOM_R50_SW BOM_R50_NW BOM_R64_NE BOM_R64_SE BOM_R64_SW BOM_R64_NW BOM_ROCI BOM_POCI BOM_EYE BOM_POS_METHOD BOM_PRES_METHOD NADI_LAT NADI_LON NADI_CAT NADI_WIND NADI_PRES WELLINGTON_LAT WELLINGTON_LON WELLINGTON_WIND WELLINGTON_PRES DS824_LAT DS824_LON DS824_STAGE DS824_WIND DS824_PRES TD9636_LAT TD9636_LON TD9636_STAGE TD9636_WIND TD9636_PRES TD9635_LAT TD9635_LON TD9635_WIND TD9635_PRES TD9635_ROCI NEUMANN_LAT NEUMANN_LON NEUMANN_CLASS NEUMANN_WIND NEUMANN_PRES MLC_LAT MLC_LON MLC_CLASS MLC_WIND MLC_PRES USA_GUST BOM_GUST BOM_GUST_PER REUNION_GUST REUNION_GUST_PER USA_SEAHGT USA_SEARAD_NE USA_SEARAD_SE USA_SEARAD_SW USA_SEARAD_NW STORM_SPEED STORM_DIR
1982287N09269 1982 90 EP MM SERGIO 1982-10-14 00:00:00 TS 9.10000 -91.5000 30 hurdat_epa main 526 526 O_________O___ hurdat_epa EP181982 9.10000 -91.5000 TD 30 -1 9.10000 -91.5000 1 30 9 282
1982287N09269 1982 90 EP MM SERGIO 1982-10-14 03:00:00 TS 9.19827 -91.9523 main 531 524 P_________P___ EP181982 9.18761 -91.9500 TD 32 -1 9.23024 -91.9591 1 32 9 284
1982287N09269 1982 90 EP MM SERGIO 1982-10-14 06:00:00 TS 9.31454 -92.4037 35 hurdat_epa main 528 520 O_________P___ hurdat_epa EP181982 9.30000 -92.4000 TS 35 0 9.35816 -92.4147 1 35 9 286
1982287N09269 1982 90 EP MM SERGIO 1982-10-14 09:00:00 TS 9.45795 -92.8532 main 522 522 P_________P___ EP181982 9.44994 -92.8500 TS 37 0 9.48199 -92.8629 1 37 9 288
1982287N09269 1982 90 EP MM SERGIO 1982-10-14 12:00:00 TS 9.60000 -93.3000 40 hurdat_epa main 528 527 O_________O___ hurdat_epa EP181982 9.60000 -93.3000 TS 40 0 9.60000 -93.3000 2 40 9 286
1982287N09269 1982 90 EP MM SERGIO 1982-10-14 15:00:00 TS 9.70829 -93.7440 main 538 538 P_________P___ EP181982 9.70744 -93.7501 TS 45 0 9.71083 -93.7258 2 46 9 283
1982287N09269 1982 90 EP MM SERGIO 1982-10-14 18:00:00 TS 9.80359 -94.1888 50 hurdat_epa main 557 557 O_________P___ hurdat_epa EP181982 9.80000 -94.2000 TS 50 0 9.81436 -94.1552 2 52 9 283
1982287N09269 1982 90 EP MM SERGIO 1982-10-14 21:00:00 TS 9.90819 -94.6224 main 569 569 P_________P___ EP181982 9.90734 -94.6275 TS 57 0 9.91074 -94.6070 2 58 9 282
1982287N09269 1982 90 EP MM SERGIO 1982-10-15 00:00:00 TS 10.0000 -95.1000 65 hurdat_epa main 591 591 O_________O___ hurdat_epa EP181982 10.0000 -95.1000 HU 65 1 10.0000 -95.1000 3 65 10 278
1982287N09269 1982 90 EP MM SERGIO 1982-10-15 03:00:00 TS 10.0560 -95.6745 main 622 616 P_________P___ EP181982 10.0500 -95.6776 HU 67 1 10.0742 -95.6652 3 67 12 275
1982287N09269 1982 90 EP MM SERGIO 1982-10-15 06:00:00 TS 10.1107 -96.2926 70 hurdat_epa main 616 604 O_________P___ hurdat_epa EP181982 10.1000 -96.3000 HU 70 1 10.1427 -96.2703 3 70 12 277
1982287N09269 1982 90 EP MM SERGIO 1982-10-15 09:00:00 TS 10.1980 -96.8976 main 605 597 P_________P___ EP181982 10.1924 -96.9000 HU 72 1 10.2148 -96.8903 3 72 12 279
1982287N09269 1982 90 EP MM SERGIO 1982-10-15 12:00:00 TS 10.3000 -97.5000 75 hurdat_epa main 601 596 O_________O___ hurdat_epa EP181982 10.3000 -97.5000 HU 75 1 10.3000 -97.5000 4 75 12 279
1982287N09269 1982 90 EP MM SERGIO 1982-10-15 15:00:00 TS 10.3928 -98.1014 main 604 604 P_________P___ EP181982 10.3925 -98.1151 HU 77 1 10.3939 -98.0606 4 77 12 280
1982287N09269 1982 90 EP MM SERGIO 1982-10-15 18:00:00 TS 10.5011 -98.6770 80 hurdat_epa main 614 612 O_________P___ hurdat_epa EP181982 10.5000 -98.7000 HU 80 1 10.5044 -98.6079 4 80 11 283
1982287N09269 1982 90 EP MM SERGIO 1982-10-15 21:00:00 TS 10.6355 -99.1879 main 623 612 P_________P___ EP181982 10.6348 -99.2001 HU 82 1 10.6377 -99.1513 4 82 11 287
1982287N09269 1982 90 EP MM SERGIO 1982-10-16 00:00:00 TS 10.8000 -99.7000 85 hurdat_epa main 617 614 O_________O___ hurdat_epa EP181982 10.8000 -99.7000 HU 85 2 10.8000 -99.7000 4 85 11 288
1982287N09269 1982 90 EP MM SERGIO 1982-10-16 03:00:00 TS 10.9897 -100.282 main 621 614 P_________P___ EP181982 10.9850 -100.293 HU 85 2 11.0039 -100.252 4 87 12 289
1982287N09269 1982 90 EP MM SERGIO 1982-10-16 06:00:00 TS 11.2086 -100.878 85 hurdat_epa main 622 615 O_________P___ hurdat_epa EP181982 11.2000 -100.900 HU 85 2 11.2343 -100.813 4 90 12 293
1982287N09269 1982 90 EP MM SERGIO 1982-10-16 09:00:00 TS 11.4610 -101.424 main 610 606 P_________P___ EP181982 11.4572 -101.435 HU 90 2 11.4725 -101.392 4 92 12 294
1982287N09269 1982 90 EP MM SERGIO 1982-10-16 12:00:00 TS 11.7000 -102.000 95 hurdat_epa main 612 611 O_________O___ hurdat_epa EP181982 11.7000 -102.000 HU 95 2 11.7000 -102.000 4 95 13 288
1982287N09269 1982 90 EP MM SERGIO 1982-10-16 15:00:00 TS 11.8634 -102.676 main 627 627 P_________P___ EP181982 11.8575 -102.685 HU 92 2 11.8811 -102.647 4 96 14 283
1982287N09269 1982 90 EP MM SERGIO 1982-10-16 18:00:00 TS 12.0124 -103.380 90 hurdat_epa main 642 641 O_________P___ hurdat_epa EP181982 12.0000 -103.400 HU 90 2 12.0498 -103.321 4 97 14 284
1982287N09269 1982 90 EP MM SERGIO 1982-10-16 21:00:00 TS 12.1932 -104.046 main 650 650 P_________P___ EP181982 12.1848 -104.058 HU 95 2 12.2185 -104.009 4 98 13 287
1982287N09269 1982 90 EP MM SERGIO 1982-10-17 00:00:00 TS 12.4000 -104.700 100 hurdat_epa main 666 659 O_________O___ hurdat_epa EP181982 12.4000 -104.700 HU 100 3 12.4000 -104.700 4 100 14 289
1982287N09269 1982 90 EP MM SERGIO 1982-10-17 03:00:00 TS 12.6389 -105.354 main 669 656 P_________P___ EP181982 12.6498 -105.343 HU 100 3 12.6063 -105.387 4 100 14 291
1982287N09269 1982 90 EP MM SERGIO 1982-10-17 06:00:00 TS 12.8818 -106.018 100 hurdat_epa main 661 659 O_________P___ hurdat_epa EP181982 12.9000 -106.000 HU 100 3 12.8272 -106.073 4 100 14 289
1982287N09269 1982 90 EP MM SERGIO 1982-10-17 09:00:00 TS 13.0955 -106.717 main 675 675 P_________P___ EP181982 13.1075 -106.708 HU 100 3 13.0594 -106.747 4 100 14 287
1982287N09269 1982 90 EP MM SERGIO 1982-10-17 12:00:00 TS 13.3000 -107.400 100 hurdat_epa main 698 698 O_________O___ hurdat_epa EP181982 13.3000 -107.400 HU 100 3 13.3000 -107.400 4 100 13 288
1982287N09269 1982 90 EP MM SERGIO 1982-10-17 15:00:00 TS 13.4992 -108.024 main 721 721 P_________P___ EP181982 13.4847 -108.015 HU 105 3 13.5425 -108.050 4 102 13 290
1982287N09269 1982 90 EP MM SERGIO 1982-10-17 18:00:00 TS 13.7231 -108.619 110 hurdat_epa main 736 733 O_________P___ hurdat_epa EP181982 13.7000 -108.600 HU 110 3 13.7923 -108.675 4 105 13 294
1982287N09269 1982 90 EP MM SERGIO 1982-10-17 21:00:00 TS 14.0115 -109.232 main 747 745 P_________P___ EP181982 14.0000 -109.222 HU 110 3 14.0458 -109.263 4 107 13 297
1982287N09269 1982 90 EP MM SERGIO 1982-10-18 00:00:00 TS 14.3000 -109.800 110 hurdat_epa main 764 763 O_________O___ hurdat_epa EP181982 14.3000 -109.800 HU 110 3 14.3000 -109.800 4 110 11 296
1982287N09269 1982 90 EP MM SERGIO 1982-10-18 03:00:00 TS 14.5122 -110.280 main 786 786 P_________P___ EP181982 14.4998 -110.280 HU 110 3 14.5493 -110.280 4 108 10 296
1982287N09269 1982 90 EP MM SERGIO 1982-10-18 06:00:00 TS 14.7248 -110.703 110 hurdat_epa main 801 793 O_________P___ hurdat_epa EP181982 14.7000 -110.700 HU 110 3 14.7991 -110.711 4 107 9 301
1982287N09269 1982 90 EP MM SERGIO 1982-10-18 09:00:00 TS 15.0010 -111.108 main 809 809 P_________P___ EP181982 14.9849 -111.108 HU 107 3 15.0494 -111.111 4 106 10 307
1982287N09269 1982 90 EP MM SERGIO 1982-10-18 12:00:00 TS 15.3000 -111.500 105 hurdat_epa main 821 821 O_________O___ hurdat_epa EP181982 15.3000 -111.500 HU 105 3 15.3000 -111.500 4 105 10 308
1982287N09269 1982 90 EP MM SERGIO 1982-10-18 15:00:00 TS 15.6047 -111.904 main 836 819 P_________P___ EP181982 15.6149 -111.900 HU 102 3 15.5742 -111.915 4 102 10 307
1982287N09269 1982 90 EP MM SERGIO 1982-10-18 18:00:00 TS 15.8862 -112.306 100 hurdat_epa main 819 807 O_________P___ hurdat_epa EP181982 15.9000 -112.300 HU 100 3 15.8448 -112.322 4 100 9 303
1982287N09269 1982 90 EP MM SERGIO 1982-10-18 21:00:00 TS 16.1151 -112.710 main 811 802 P_________P___ EP181982 16.1225 -112.708 HU 97 3 16.0930 -112.718 4 97 9 298
1982287N09269 1982 90 EP MM SERGIO 1982-10-19 00:00:00 TS 16.3000 -113.100 95 hurdat_epa main 806 799 O_________O___ hurdat_epa EP181982 16.3000 -113.100 HU 95 2 16.3000 -113.100 4 95 8 296
1982287N09269 1982 90 EP MM SERGIO 1982-10-19 03:00:00 TS 16.4701 -113.458 main 804 803 P_________P___ EP181982 16.4724 -113.458 HU 92 2 16.4631 -113.461 4 95 7 294
1982287N09269 1982 90 EP MM SERGIO 1982-10-19 06:00:00 TS 16.5955 -113.802 90 hurdat_epa main 808 808 O_________P___ hurdat_epa EP181982 16.6000 -113.800 HU 90 2 16.5820 -113.808 4 95 7 287
1982287N09269 1982 90 EP MM SERGIO 1982-10-19 09:00:00 TS 16.6693 -114.145 main 815 815 P_________P___ EP181982 16.6724 -114.143 HU 92 2 16.6600 -114.151 4 95 7 279
1982287N09269 1982 90 EP MM SERGIO 1982-10-19 12:00:00 TS 16.7000 -114.500 95 hurdat_epa main 837 837 O_________O___ hurdat_epa EP181982 16.7000 -114.500 HU 95 2 16.7000 -114.500 4 95 7 273
1982287N09269 1982 90 EP MM SERGIO 1982-10-19 15:00:00 TS 16.7129 -114.889 main 862 862 P_________P___ EP181982 16.7150 -114.900 HU 90 2 16.7066 -114.856 4 90 7 270
1982287N09269 1982 90 EP MM SERGIO 1982-10-19 18:00:00 TS 16.6949 -115.280 85 hurdat_epa main 887 887 O_________P___ hurdat_epa EP181982 16.7000 -115.300 HU 85 2 16.6795 -115.220 4 85 7 265
1982287N09269 1982 90 EP MM SERGIO 1982-10-19 21:00:00 TS 16.6468 -115.632 main 916 916 P_________P___ EP181982 16.6498 -115.643 HU 80 1 16.6378 -115.600 4 80 7 262
1982287N09269 1982 90 EP MM SERGIO 1982-10-20 00:00:00 TS 16.6000 -116.000 75 hurdat_epa main 943 943 O_________O___ hurdat_epa EP181982 16.6000 -116.000 HU 75 1 16.6000 -116.000 4 75 8 266
1982287N09269 1982 90 EP MM SERGIO 1982-10-20 03:00:00 TS 16.5915 -116.432 main 971 971 P_________P___ EP181982 16.5925 -116.435 HU 75 1 16.5886 -116.424 4 75 9 270
1982287N09269 1982 90 EP MM SERGIO 1982-10-20 06:00:00 TS 16.5962 -116.893 75 hurdat_epa main 1008 1008 O_________P___ hurdat_epa EP181982 16.6000 -116.900 HU 75 1 16.5848 -116.870 4 75 9 270
1982287N09269 1982 90 EP MM SERGIO 1982-10-20 09:00:00 TS 16.5914 -117.345 main 1038 1038 P_________P___ EP181982 16.5924 -117.350 HU 75 1 16.5886 -117.331 4 75 9 270
1982287N09269 1982 90 EP MM SERGIO 1982-10-20 12:00:00 TS 16.6000 -117.800 75 hurdat_epa main 1077 1077 O_________O___ hurdat_epa EP181982 16.6000 -117.800 HU 75 1 16.6000 -117.800 4 75 9 273
1982287N09269 1982 90 EP MM SERGIO 1982-10-20 15:00:00 TS 16.6425 -118.236 main 1105 1102 P_________P___ EP181982 16.6499 -118.242 HU 75 1 16.6206 -118.215 4 75 9 276
1982287N09269 1982 90 EP MM SERGIO 1982-10-20 18:00:00 TS 16.6870 -118.686 75 hurdat_epa main 1127 1127 O_________P___ hurdat_epa EP181982 16.7000 -118.700 HU 75 1 16.6480 -118.645 4 75 9 274
1982287N09269 1982 90 EP MM SERGIO 1982-10-20 21:00:00 TS 16.6994 -119.143 main 1152 1152 P_________P___ EP181982 16.7070 -119.148 HU 75 1 16.6765 -119.128 4 75 10 271
1982287N09269 1982 90 EP MM SERGIO 1982-10-21 00:00:00 TS 16.7000 -119.700 75 hurdat_epa main 1193 1193 O_________O___ hurdat_epa EP181982 16.7000 -119.700 HU 75 1 16.7000 -119.700 4 75 12 270
1982287N09269 1982 90 EP MM SERGIO 1982-10-21 03:00:00 TS 16.6990 -120.444 main 1242 1242 P_________P___ EP181982 16.7001 -120.455 HU 72 1 16.6957 -120.411 4 73 15 270
1982287N09269 1982 90 EP MM SERGIO 1982-10-21 06:00:00 TS 16.6965 -121.278 70 hurdat_epa main 1308 1308 O_________P___ hurdat_epa EP181982 16.7000 -121.300 HU 70 1 16.6859 -121.211 4 72 16 270
1982287N09269 1982 90 EP MM SERGIO 1982-10-21 09:00:00 TS 16.6899 -122.089 main 1370 1370 P_________P___ EP181982 16.6922 -122.100 HU 70 1 16.6830 -122.055 4 71 16 270
1982287N09269 1982 90 EP MM SERGIO 1982-10-21 12:00:00 TS 16.7000 -122.900 70 hurdat_epa main 1433 1433 O_________O___ hurdat_epa EP181982 16.7000 -122.900 HU 70 1 16.7000 -122.900 4 70 16 272
1982287N09269 1982 90 EP MM SERGIO 1982-10-21 15:00:00 TS 16.7383 -123.708 main 1498 1498 P_________P___ EP181982 16.7348 -123.708 HU 60 0 16.7491 -123.710 4 63 15 274
1982287N09269 1982 90 EP MM SERGIO 1982-10-21 18:00:00 TS 16.8049 -124.502 50 hurdat_epa main 1558 1558 O_________P___ hurdat_epa EP181982 16.8000 -124.500 TS 50 0 16.8198 -124.510 4 57 15 276
1982287N09269 1982 90 EP MM SERGIO 1982-10-21 21:00:00 TS 16.8899 -125.269 main 1604 1604 P_________P___ EP181982 16.8847 -125.265 TS 47 0 16.9055 -125.279 4 51 14 278
1982287N09269 1982 90 EP MM SERGIO 1982-10-22 00:00:00 TS 17.0000 -126.000 45 hurdat_epa main 1644 1644 O_________O___ hurdat_epa EP181982 17.0000 -126.000 TS 45 0 17.0000 -126.000 2 45 14 280
1982287N09269 1982 90 EP MM SERGIO 1982-10-22 03:00:00 TS 17.1400 -126.718 main 1686 1685 P_________P___ EP181982 17.1575 -126.737 TS 40 0 17.0875 -126.659 2 42 13 282
1982287N09269 1982 90 EP MM SERGIO 1982-10-22 06:00:00 TS 17.2709 -127.367 35 hurdat_epa main 1722 1722 O_________P___ hurdat_epa EP181982 17.3000 -127.400 TS 35 0 17.1835 -127.268 2 40 12 280
1982287N09269 1982 90 EP MM SERGIO 1982-10-22 09:00:00 TS 17.3397 -127.903 main 1760 1760 P_________P___ EP181982 17.3571 -127.923 TS 35 0 17.2878 -127.843 2 37 10 277
1982287N09269 1982 90 EP MM SERGIO 1982-10-22 12:00:00 TS 17.4000 -128.400 35 hurdat_epa main 1791 1791 O_________O___ hurdat_epa EP181982 17.4000 -128.400 TS 35 0 17.4000 -128.400 2 35 10 279
1982287N09269 1982 90 EP MM SERGIO 1982-10-22 15:00:00 TS 17.4910 -128.950 main 1831 1831 P_________P___ EP181982 17.4849 -128.943 TS 35 0 17.5092 -128.973 2 33 11 281
1982287N09269 1982 90 EP MM SERGIO 1982-10-22 18:00:00 TS 17.6067 -129.508 35 hurdat_epa main 1864 1864 O_________P___ hurdat_epa EP181982 17.6000 -129.500 TS 35 0 17.6269 -129.530 2 32 11 283
1982287N09269 1982 90 EP MM SERGIO 1982-10-22 21:00:00 TS 17.7402 -130.061 main 1906 1899 P_________P___ EP181982 17.7349 -130.058 TS 32 -1 17.7561 -130.073 2 31 11 286
1982287N09269 1982 90 EP MM SERGIO 1982-10-23 00:00:00 TS 17.9000 -130.600 30 hurdat_epa main 1934 1934 O_________O___ hurdat_epa EP181982 17.9000 -130.600 TD 30 -1 17.9000 -130.600 1 30 11 289
1982287N09269 1982 90 EP MM SERGIO 1982-10-23 03:00:00 TS 18.0943 -131.117 main 1963 1963 P_________P___ EP181982 18.0998 -131.108 TD 27 -1 18.0779 -131.147 1 28 10 292
1982287N09269 1982 90 EP MM SERGIO 1982-10-23 06:00:00 TS 18.2917 -131.619 25 hurdat_epa main 1993 1993 O_________P___ hurdat_epa EP181982 18.3000 -131.600 TD 25 -1 18.2670 -131.675 1 27 10 291
1982287N09269 1982 90 EP MM SERGIO 1982-10-23 09:00:00 TS 18.4607 -132.133 main 2024 2024 P_________P___ EP181982 18.4650 -132.123 TD 25 -1 18.4476 -132.165 1 26 10 288
1982287N09269 1982 90 EP MM SERGIO 1982-10-23 12:00:00 TS 18.6000 -132.600 25 hurdat_epa main 2062 2062 O_________O___ hurdat_epa EP181982 18.6000 -132.600 TD 25 -1 18.6000 -132.600 1 25 8 287
1982287N09269 1982 90 EP MM SERGIO 1982-10-23 15:00:00 TS 18.7086 -132.977 main 2092 2092 P_________P___ EP181982 18.7075 -132.980 TD 25 -1 18.7120 -132.969 1 25 7 287
1982287N09269 1982 90 EP MM SERGIO 1982-10-23 18:00:00 TS 18.8000 -133.300 25 hurdat_epa main 2113 O_________O___ hurdat_epa EP181982 18.8000 -133.300 TD 25 -1 18.8000 -133.300 1 25 6 287

About IBTrACS Database

This database is a web-friendly format of International Best Track Archive for Climate Stewardship (IBTrACS), a global best track data archive curated by NOAA dating back to 1842.

Updated: 2021-10-08